Time;durP1;ratioP1;P1;durP2;ratioP2;P2;SDS_P1;SDS_P2;PMS_P1;PMS_P2;Temp;Humidity;BMP_temperature;BMP_pressure;BME280_temperature;BME280_humidity;BME280_pressure;Samples;Min_cycle;Max_cycle;Signal;HPM_P1;HPM_P2
2022/03/03 00:02:05;;;;;;;27.10;12.00;;;;;;;-1.95;75.47;101532.61;107838;1279;61766;-75
2022/03/03 00:04:31;;;;;;;22.60;12.30;;;;;;;-1.94;75.72;101534.14;107738;1279;75241;-75
2022/03/03 00:06:58;;;;;;;21.90;11.70;;;;;;;-1.94;75.76;101527.88;108026;1278;71437;-74
2022/03/03 00:09:24;;;;;;;21.00;11.00;;;;;;;-1.91;75.89;101529.33;107902;1279;59172;-76
2022/03/03 00:11:51;;;;;;;26.20;14.00;;;;;;;-1.91;75.85;101528.95;107949;1279;59417;-76
2022/03/03 00:14:17;;;;;;;30.20;13.10;;;;;;;-1.89;76.00;101525.90;107984;1278;59167;-73
2022/03/03 00:16:44;;;;;;;31.40;13.00;;;;;;;-1.88;76.09;101523.63;108036;1277;59557;-76
2022/03/03 00:19:10;;;;;;;24.50;12.90;;;;;;;-1.87;76.00;101528.75;108029;1277;60157;-73
2022/03/03 00:21:37;;;;;;;22.90;11.20;;;;;;;-1.88;75.68;101530.73;107959;1279;59049;-73
2022/03/03 00:24:04;;;;;;;23.60;11.70;;;;;;;-1.92;75.77;101529.89;107954;1279;58557;-73
2022/03/03 00:26:30;;;;;;;23.20;11.60;;;;;;;-1.94;75.85;101529.80;108001;1279;61515;-74
2022/03/03 00:28:57;;;;;;;27.40;13.10;;;;;;;-1.94;76.31;101528.77;108044;1279;76155;-75
2022/03/03 00:31:23;;;;;;;24.30;13.30;;;;;;;-1.95;76.37;101520.34;108037;1279;59083;-73
2022/03/03 00:33:50;;;;;;;23.30;12.00;;;;;;;-1.96;76.37;101510.13;108008;1278;74199;-74
2022/03/03 00:36:17;;;;;;;28.30;12.50;;;;;;;-1.97;76.26;101509.67;108066;1279;62488;-73
2022/03/03 00:38:43;;;;;;;21.80;11.60;;;;;;;-1.98;76.20;101509.38;107972;1279;59088;-75
2022/03/03 00:41:10;;;;;;;24.20;12.50;;;;;;;-2.01;76.05;101503.43;108033;1279;75972;-75
2022/03/03 00:43:36;;;;;;;25.10;11.80;;;;;;;-2.06;76.13;101504.33;108068;1279;59840;-73
2022/03/03 00:46:06;;;;;;;21.00;10.80;;;;;;;-2.08;76.38;101501.66;108095;1278;72347;-73
2022/03/03 00:48:33;;;;;;;25.90;11.80;;;;;;;-2.11;76.40;101504.58;107984;1279;61598;-75
2022/03/03 00:51:00;;;;;;;23.10;11.80;;;;;;;-2.15;76.44;101498.55;108026;1279;58349;-74
2022/03/03 00:53:26;;;;;;;32.50;12.00;;;;;;;-2.18;76.56;101496.98;107962;1279;74880;-76
2022/03/03 00:55:53;;;;;;;21.20;12.70;;;;;;;-2.21;76.64;101498.70;108006;1279;59000;-73
2022/03/03 00:58:19;;;;;;;18.60;9.60;;;;;;;-2.25;77.00;101500.74;108102;1279;59407;-75
2022/03/03 01:00:45;;;;;;;23.60;11.90;;;;;;;-2.27;77.06;101507.27;108074;1280;60159;-75
2022/03/03 01:03:12;;;;;;;26.80;12.20;;;;;;;-2.30;77.11;101506.70;107742;1279;59127;-73
2022/03/03 01:05:39;;;;;;;21.60;12.10;;;;;;;-2.34;77.23;101504.29;108022;1279;75951;-74
2022/03/03 01:08:09;;;;;;;24.20;11.80;;;;;;;-2.37;77.21;101503.39;108066;1278;71383;-75
2022/03/03 01:10:37;;;;;;;23.20;12.40;;;;;;;-2.39;77.30;101498.99;108010;1279;73967;-73
2022/03/03 01:13:04;;;;;;;26.50;11.20;;;;;;;-2.40;77.43;101495.08;107987;1279;61479;-73
2022/03/03 01:15:31;;;;;;;23.30;11.40;;;;;;;-2.41;77.55;101488.02;108039;1279;60592;-73
2022/03/03 01:17:57;;;;;;;22.30;11.00;;;;;;;-2.42;77.70;101484.78;108064;1280;75941;-74
2022/03/03 01:20:24;;;;;;;28.20;11.20;;;;;;;-2.44;77.54;101484.52;108003;1279;71409;-76
2022/03/03 01:22:50;;;;;;;29.70;12.20;;;;;;;-2.46;77.66;101484.77;107993;1279;74144;-73
2022/03/03 01:25:17;;;;;;;23.60;12.20;;;;;;;-2.47;77.64;101482.39;107942;1279;59124;-76
2022/03/03 01:27:45;;;;;;;25.70;12.70;;;;;;;-2.48;77.71;101479.33;108105;1277;59124;-75
2022/03/03 01:30:12;;;;;;;25.20;12.30;;;;;;;-2.50;77.65;101476.80;107963;1278;75947;-75
2022/03/03 01:32:39;;;;;;;25.80;11.60;;;;;;;-2.53;77.68;101471.90;108038;1279;72440;-75
2022/03/03 01:35:06;;;;;;;29.10;12.30;;;;;;;-2.54;77.80;101467.13;107948;1279;72176;-73
2022/03/03 01:37:32;;;;;;;22.20;11.20;;;;;;;-2.56;77.80;101469.98;107873;1280;62181;-75
2022/03/03 01:39:59;;;;;;;24.30;11.00;;;;;;;-2.58;77.83;101471.48;107757;1280;60432;-75
2022/03/03 01:42:25;;;;;;;25.20;12.00;;;;;;;-2.62;77.74;101477.56;108017;1279;74884;-75
2022/03/03 01:44:52;;;;;;;20.70;11.60;;;;;;;-2.66;77.83;101482.07;108024;1278;72564;-72
2022/03/03 01:47:21;;;;;;;26.60;12.60;;;;;;;-2.70;78.07;101485.52;108109;1278;59729;-74
2022/03/03 01:49:50;;;;;;;26.10;12.80;;;;;;;-2.73;78.19;101484.47;108055;1278;61425;-73
2022/03/03 01:52:16;;;;;;;22.60;11.70;;;;;;;-2.77;78.33;101485.66;107986;1279;61928;-75
2022/03/03 01:54:43;;;;;;;26.00;12.40;;;;;;;-2.81;78.29;101484.45;107975;1279;74928;-75
2022/03/03 01:57:11;;;;;;;25.60;11.40;;;;;;;-2.84;78.50;101484.42;108004;1279;71334;-73
2022/03/03 01:59:38;;;;;;;21.00;11.50;;;;;;;-2.86;78.70;101476.73;107944;1279;72843;-73
2022/03/03 02:02:10;;;;;;;22.30;11.10;;;;;;;-2.90;78.95;101470.48;107753;1279;60447;-74
2022/03/03 02:04:38;;;;;;;21.40;11.60;;;;;;;-2.93;78.95;101464.75;108046;1278;61540;-74
2022/03/03 02:07:07;;;;;;;18.80;9.30;;;;;;;-2.96;78.97;101464.17;108034;1278;74959;-73
2022/03/03 02:09:34;;;;;;;30.00;12.10;;;;;;;-3.01;78.96;101454.36;107981;1279;71632;-72
2022/03/03 02:12:02;;;;;;;27.60;12.50;;;;;;;-3.03;79.15;101446.87;107735;1278;72883;-75
2022/03/03 02:14:28;;;;;;;22.90;11.70;;;;;;;-3.06;79.25;101445.43;107943;1279;61226;-74
2022/03/03 02:16:55;;;;;;;22.00;11.50;;;;;;;-3.09;79.38;101446.62;108066;1277;60336;-75
2022/03/03 02:19:21;;;;;;;22.00;9.80;;;;;;;-3.12;79.40;101457.14;107950;1279;59663;-75
2022/03/03 02:21:51;;;;;;;27.10;11.80;;;;;;;-3.15;79.69;101461.91;108017;1279;59214;-75
2022/03/03 02:24:19;;;;;;;30.60;11.70;;;;;;;-3.17;79.85;101459.41;107963;1279;73079;-74
2022/03/03 02:26:47;;;;;;;25.50;12.90;;;;;;;-3.19;79.90;101458.66;108036;1278;61437;-72
2022/03/03 02:29:14;;;;;;;24.50;11.30;;;;;;;-3.21;79.88;101458.39;108047;1277;60233;-72
2022/03/03 02:31:41;;;;;;;23.50;12.30;;;;;;;-3.23;79.81;101462.30;107977;1279;75030;-72
2022/03/03 02:34:07;;;;;;;23.40;11.10;;;;;;;-3.26;79.84;101465.71;107989;1277;71534;-73
2022/03/03 02:36:34;;;;;;;26.80;12.10;;;;;;;-3.29;79.99;101465.81;107735;1279;59563;-73
2022/03/03 02:39:04;;;;;;;25.60;12.00;;;;;;;-3.31;79.97;101466.75;108032;1277;61452;-74
2022/03/03 02:41:31;;;;;;;24.10;12.60;;;;;;;-3.33;80.02;101457.49;108070;1278;60584;-73
2022/03/03 02:43:59;;;;;;;25.10;12.40;;;;;;;-3.36;80.01;101455.23;108035;1277;76467;-73
2022/03/03 02:46:25;;;;;;;27.50;13.20;;;;;;;-3.39;79.91;101453.27;107754;1279;71387;-75
2022/03/03 02:48:52;;;;;;;24.80;11.70;;;;;;;-3.43;79.80;101454.17;107967;1279;73759;-76
2022/03/03 02:51:19;;;;;;;22.00;11.80;;;;;;;-3.49;79.80;101463.23;108046;1278;59110;-73
2022/03/03 02:53:46;;;;;;;27.00;12.10;;;;;;;-3.54;80.23;101465.34;108075;1278;60687;-75
2022/03/03 02:56:12;;;;;;;20.80;11.80;;;;;;;-3.57;80.58;101458.57;108062;1278;75886;-75
2022/03/03 02:58:39;;;;;;;24.10;12.20;;;;;;;-3.60;80.62;101454.00;107986;1278;59075;-73
2022/03/03 03:01:06;;;;;;;26.10;12.00;;;;;;;-3.61;80.83;101453.89;108009;1279;59275;-75
2022/03/03 03:03:33;;;;;;;25.30;13.00;;;;;;;-3.63;81.05;101449.15;107976;1279;61197;-73
2022/03/03 03:06:00;;;;;;;25.40;12.00;;;;;;;-3.65;81.11;101438.86;108038;1279;60586;-76
2022/03/03 03:08:26;;;;;;;27.10;12.10;;;;;;;-3.66;81.14;101441.65;108029;1277;74846;-75
2022/03/03 03:10:53;;;;;;;26.70;11.80;;;;;;;-3.67;81.00;101443.10;108055;1278;72311;-76
2022/03/03 03:13:22;;;;;;;25.80;12.60;;;;;;;-3.70;81.17;101442.65;108078;1277;74258;-74
2022/03/03 03:15:49;;;;;;;23.10;11.20;;;;;;;-3.71;81.28;101437.89;108014;1277;63165;-73
2022/03/03 03:18:18;;;;;;;25.00;12.00;;;;;;;-3.74;81.18;101441.80;108017;1277;59129;-74
2022/03/03 03:20:47;;;;;;;25.40;11.70;;;;;;;-3.77;81.21;101441.92;107994;1279;75949;-75
2022/03/03 03:23:17;;;;;;;22.50;10.80;;;;;;;-3.79;81.32;101437.20;108075;1277;71246;-75
2022/03/03 03:25:44;;;;;;;20.10;11.10;;;;;;;-3.82;81.51;101434.89;107985;1279;73102;-75
2022/03/03 03:28:11;;;;;;;24.50;11.90;;;;;;;-3.85;81.55;101439.16;108064;1278;61391;-73
2022/03/03 03:30:39;;;;;;;22.70;11.60;;;;;;;-3.87;81.64;101439.95;107950;1279;60618;-76
2022/03/03 03:33:06;;;;;;;21.90;10.90;;;;;;;-3.94;81.46;101438.14;108035;1278;75131;-73
2022/03/03 03:35:33;;;;;;;23.30;12.10;;;;;;;-3.98;81.36;101442.47;108040;1277;71332;-76
2022/03/03 03:38:00;;;;;;;22.90;11.70;;;;;;;-4.04;81.43;101438.90;108048;1277;72724;-74
2022/03/03 03:40:27;;;;;;;26.50;13.20;;;;;;;-4.08;81.69;101431.83;107709;1280;62227;-74
2022/03/03 03:42:53;;;;;;;22.80;11.00;;;;;;;-4.11;82.15;101428.48;108081;1277;59544;-75
2022/03/03 03:45:20;;;;;;;22.10;11.00;;;;;;;-4.13;82.39;101423.55;107913;1280;59170;-75
2022/03/03 03:47:46;;;;;;;26.60;12.30;;;;;;;-4.16;82.32;101417.96;107986;1279;59457;-76
2022/03/03 03:50:14;;;;;;;25.20;11.50;;;;;;;-4.18;82.34;101420.46;107996;1278;59423;-73
2022/03/03 03:52:41;;;;;;;26.90;12.80;;;;;;;-4.22;82.42;101422.70;108044;1277;61953;-74
2022/03/03 03:55:09;;;;;;;29.70;13.50;;;;;;;-4.25;82.38;101423.18;107968;1279;59282;-75
2022/03/03 03:57:36;;;;;;;28.50;12.80;;;;;;;-4.29;82.45;101423.34;107984;1279;76128;-76
2022/03/03 04:00:05;;;;;;;24.50;12.60;;;;;;;-4.31;82.89;101419.44;107983;1278;71382;-75
2022/03/03 04:02:32;;;;;;;26.60;13.30;;;;;;;-4.33;82.77;101419.02;108003;1280;74009;-73
2022/03/03 04:04:59;;;;;;;32.50;12.20;;;;;;;-4.35;83.39;101426.85;108023;1277;63379;-76
2022/03/03 04:07:26;;;;;;;21.80;11.40;;;;;;;-4.35;83.53;101438.44;107997;1277;61426;-73
2022/03/03 04:09:52;;;;;;;21.70;11.10;;;;;;;-4.35;83.69;101439.45;107958;1280;59269;-75
2022/03/03 04:12:18;;;;;;;28.70;13.00;;;;;;;-4.35;84.13;101433.58;107958;1279;59605;-73
2022/03/03 04:14:45;;;;;;;30.30;12.50;;;;;;;-4.34;84.11;101434.56;108021;1277;59328;-74
2022/03/03 04:17:11;;;;;;;23.90;11.30;;;;;;;-4.33;84.13;101433.14;107982;1278;59329;-72
2022/03/03 04:19:40;;;;;;;27.40;12.60;;;;;;;-4.32;84.29;101434.33;107968;1279;59131;-76
2022/03/03 04:22:06;;;;;;;28.30;11.90;;;;;;;-4.31;84.28;101435.67;108048;1277;75971;-75
2022/03/03 04:24:33;;;;;;;25.20;12.10;;;;;;;-4.31;84.40;101434.30;107957;1280;58641;-73
2022/03/03 04:26:59;;;;;;;27.00;12.70;;;;;;;-4.31;84.29;101430.31;107969;1279;59106;-76
2022/03/03 04:29:26;;;;;;;24.50;12.00;;;;;;;-4.31;84.23;101424.45;107931;1279;70009;-76
2022/03/03 04:31:53;;;;;;;25.60;12.10;;;;;;;-4.32;84.38;101422.41;107969;1279;59018;-73
2022/03/03 04:34:20;;;;;;;21.10;11.10;;;;;;;-4.32;84.37;101431.59;107708;1281;74939;-76
2022/03/03 04:36:47;;;;;;;26.60;12.40;;;;;;;-4.34;84.26;101430.25;107986;1280;59393;-76
2022/03/03 04:39:14;;;;;;;21.80;10.90;;;;;;;-4.36;84.15;101423.95;107900;1279;59522;-73
2022/03/03 04:41:41;;;;;;;25.30;11.70;;;;;;;-4.39;84.25;101434.27;107999;1278;62371;-75
2022/03/03 04:44:08;;;;;;;24.90;13.20;;;;;;;-4.40;84.55;101435.52;108039;1278;60308;-74
2022/03/03 04:46:34;;;;;;;27.40;12.70;;;;;;;-4.43;84.62;101422.51;108005;1278;76087;-73
2022/03/03 04:49:02;;;;;;;26.20;13.10;;;;;;;-4.42;84.74;101426.80;107991;1280;72744;-76
2022/03/03 04:51:30;;;;;;;21.90;12.20;;;;;;;-4.44;84.78;101429.63;108113;1277;71850;-73
2022/03/03 04:53:56;;;;;;;24.70;11.30;;;;;;;-4.45;84.95;101430.37;108074;1277;63006;-75
2022/03/03 04:56:23;;;;;;;26.20;12.80;;;;;;;-4.46;85.28;101430.58;107996;1277;59144;-75
2022/03/03 04:58:49;;;;;;;25.40;12.00;;;;;;;-4.46;85.36;101432.65;107996;1279;74883;-76
2022/03/03 05:01:16;;;;;;;24.80;12.40;;;;;;;-4.46;85.36;101435.92;107966;1279;72671;-73
2022/03/03 05:03:43;;;;;;;27.60;12.60;;;;;;;-4.46;85.34;101433.87;107985;1279;73017;-74
2022/03/03 05:06:09;;;;;;;26.00;12.20;;;;;;;-4.47;85.67;101430.95;107947;1279;59248;-76
2022/03/03 05:08:36;;;;;;;26.80;12.10;;;;;;;-4.47;85.50;101428.20;108100;1277;59394;-74
2022/03/03 05:11:05;;;;;;;34.50;14.00;;;;;;;-4.49;85.47;101428.11;107712;1278;59934;-76
2022/03/03 05:13:32;;;;;;;24.90;12.50;;;;;;;-4.51;85.55;101424.55;107752;1280;72506;-75
2022/03/03 05:15:58;;;;;;;28.60;12.30;;;;;;;-4.53;85.50;101426.53;107930;1279;74018;-75
2022/03/03 05:18:25;;;;;;;29.10;12.00;;;;;;;-4.55;85.54;101429.36;107994;1279;59270;-73
2022/03/03 05:20:52;;;;;;;27.30;12.60;;;;;;;-4.58;85.41;101421.20;108070;1277;59309;-75
2022/03/03 05:23:22;;;;;;;29.70;12.30;;;;;;;-4.61;85.56;101420.79;107981;1278;74555;-76
2022/03/03 05:25:49;;;;;;;29.10;12.40;;;;;;;-4.62;85.65;101429.81;107929;1280;71291;-76
2022/03/03 05:28:15;;;;;;;26.50;13.20;;;;;;;-4.64;85.84;101426.42;107919;1279;59454;-73
2022/03/03 05:30:42;;;;;;;30.30;13.90;;;;;;;-4.64;85.73;101433.02;107977;1279;59555;-73
2022/03/03 05:33:09;;;;;;;25.40;13.10;;;;;;;-4.68;85.58;101441.11;108084;1277;60506;-73
2022/03/03 05:35:35;;;;;;;32.40;14.60;;;;;;;-4.70;85.90;101444.77;107977;1279;59199;-75
2022/03/03 05:38:03;;;;;;;29.30;14.30;;;;;;;-4.68;86.45;101446.27;108019;1278;70426;-76
2022/03/03 05:40:31;;;;;;;28.50;13.90;;;;;;;-4.67;86.80;101441.04;107843;1280;71518;-75
2022/03/03 05:42:57;;;;;;;27.70;12.80;;;;;;;-4.64;87.14;101445.40;107934;1279;63046;-76
2022/03/03 05:45:24;;;;;;;33.60;15.00;;;;;;;-4.59;87.75;101444.54;107761;1280;59295;-74
2022/03/03 05:47:52;;;;;;;36.20;16.00;;;;;;;-4.55;87.92;101441.42;107715;1281;75974;-75
2022/03/03 05:50:18;;;;;;;34.00;15.90;;;;;;;-4.50;88.15;101442.27;108081;1277;72345;-76
2022/03/03 05:52:44;;;;;;;33.80;15.40;;;;;;;-4.46;88.30;101435.77;108081;1277;59792;-75
2022/03/03 05:55:12;;;;;;;37.80;16.40;;;;;;;-4.44;88.28;101430.33;108038;1277;60077;-75
2022/03/03 05:57:48;;;;;;;33.80;15.90;;;;;;;-4.42;88.38;101430.09;107959;1279;61290;-73
2022/03/03 06:00:16;;;;;;;;;;;;;;;-4.43;88.24;101433.03;107966;1279;76118;-75
2022/03/03 06:02:50;;;;;;;34.60;15.30;;;;;;;-4.42;88.47;101433.34;107983;1279;71492;-73
2022/03/03 06:05:19;;;;;;;29.50;13.90;;;;;;;-4.39;88.65;101438.77;107925;1279;73077;-75
2022/03/03 06:07:51;;;;;;;32.50;14.10;;;;;;;-4.39;88.57;101439.27;108051;1278;61967;-73
2022/03/03 06:10:22;;;;;;;34.00;16.20;;;;;;;-4.38;88.69;101435.08;108066;1277;61518;-73
2022/03/03 06:12:52;;;;;;;29.60;14.60;;;;;;;-4.37;88.39;101431.27;107904;1277;74979;-75
2022/03/03 06:15:22;;;;;;;31.00;15.00;;;;;;;-4.37;88.45;101428.48;107792;1280;71293;-75
2022/03/03 06:17:50;;;;;;;28.90;13.90;;;;;;;-4.35;88.49;101424.80;108074;1277;74046;-73
2022/03/03 06:20:18;;;;;;;36.50;15.20;;;;;;;-4.35;88.52;101428.90;108028;1277;61966;-73
2022/03/03 06:22:45;;;;;;;33.90;16.30;;;;;;;-4.32;88.91;101421.39;108131;1277;60220;-74
2022/03/03 06:25:13;;;;;;;40.40;18.50;;;;;;;-4.26;89.01;101418.38;108155;1277;74999;-74
2022/03/03 06:27:39;;;;;;;35.90;16.40;;;;;;;-4.20;88.91;101421.39;108121;1277;71667;-74
2022/03/03 06:30:09;;;;;;;33.10;15.70;;;;;;;-4.14;88.80;101427.21;108140;1277;72897;-74
2022/03/03 06:32:35;;;;;;;31.90;14.60;;;;;;;-4.09;88.61;101429.41;108039;1279;63577;-74
2022/03/03 06:35:03;;;;;;;38.30;16.40;;;;;;;-4.04;88.36;101433.56;108072;1279;59071;-74
2022/03/03 06:37:29;;;;;;;40.30;17.50;;;;;;;-3.98;88.55;101435.20;107962;1277;76197;-75
2022/03/03 06:39:56;;;;;;;39.60;17.40;;;;;;;-3.92;88.58;101430.46;108096;1279;72462;-73
2022/03/03 06:42:22;;;;;;;34.70;16.00;;;;;;;-3.85;88.67;101429.80;108030;1279;59133;-74
2022/03/03 06:44:49;;;;;;;37.30;16.00;;;;;;;-3.80;88.24;101431.70;108216;1277;59104;-74
2022/03/03 06:47:16;;;;;;;37.30;16.10;;;;;;;-3.76;88.08;101428.23;108146;1277;59057;-75
2022/03/03 06:49:42;;;;;;;39.30;16.30;;;;;;;-3.71;87.99;101424.74;108092;1279;76059;-75
2022/03/03 06:52:14;;;;;;;33.00;14.60;;;;;;;-3.66;87.83;101427.98;108163;1277;71340;-73
2022/03/03 06:54:45;;;;;;;37.20;16.10;;;;;;;-3.59;88.00;101419.58;108007;1277;72918;-74
2022/03/03 06:57:12;;;;;;;35.80;16.70;;;;;;;-3.53;88.04;101424.33;108087;1277;62360;-74
2022/03/03 06:59:39;;;;;;;38.30;15.80;;;;;;;-3.45;88.34;101421.21;108230;1277;60543;-73
2022/03/03 07:02:08;;;;;;;40.50;17.30;;;;;;;-3.37;88.31;101412.20;107961;1277;76191;-73
2022/03/03 07:04:35;;;;;;;33.10;15.30;;;;;;;-3.27;88.42;101416.79;108023;1279;72170;-75
2022/03/03 07:07:03;;;;;;;32.70;15.60;;;;;;;-3.18;88.29;101422.94;108035;1279;59206;-75
2022/03/03 07:09:30;;;;;;;43.90;17.60;;;;;;;-3.07;88.32;101421.63;108145;1277;60264;-74
2022/03/03 07:11:59;;;;;;;36.50;16.70;;;;;;;-2.97;88.27;101420.11;108074;1279;61453;-74
2022/03/03 07:14:25;;;;;;;38.90;18.20;;;;;;;-2.87;88.29;101422.06;108019;1279;74982;-74
2022/03/03 07:17:02;;;;;;;40.10;18.30;;;;;;;-2.76;88.16;101416.71;107983;1279;71641;-75
2022/03/03 07:19:43;;;;;;;41.80;19.20;;;;;;;-2.64;87.80;101425.35;108181;1277;74034;-74
2022/03/03 07:22:17;;;;;;;33.10;17.40;;;;;;;-2.53;87.62;101420.65;108163;1277;61265;-75
2022/03/03 07:24:46;;;;;;;44.10;18.20;;;;;;;-2.43;87.43;101416.02;108088;1279;61625;-74
2022/03/03 07:27:24;;;;;;;39.70;18.50;;;;;;;-2.33;87.27;101411.23;108162;1277;76058;-74
2022/03/03 07:29:56;;;;;;;33.80;16.60;;;;;;;-2.20;87.18;101407.70;107964;1280;71360;-74
2022/03/03 07:32:56;;;;;;;34.00;16.60;;;;;;;-2.11;86.89;101399.56;108055;1277;72912;-74
2022/03/03 07:35:25;;;;;;;30.60;13.70;;;;;;;-1.98;86.55;101402.05;108017;1279;61425;-75
2022/03/03 07:38:00;;;;;;;28.20;15.20;;;;;;;-1.91;85.91;101398.92;108036;1277;61625;-74
2022/03/03 07:40:29;;;;;;;35.10;17.20;;;;;;;-1.82;85.60;101397.61;107780;1279;336885;-74
2022/03/03 07:42:57;;;;;;;33.10;17.50;;;;;;;-1.76;85.01;101391.05;108118;1277;71323;-74
2022/03/03 07:45:25;;;;;;;25.80;13.90;;;;;;;-1.68;85.09;101393.09;107981;1277;72017;-75
2022/03/03 07:47:55;;;;;;;31.50;16.40;;;;;;;-1.58;85.02;101386.52;108220;1277;59994;-74
2022/03/03 07:50:23;;;;;;;32.00;15.50;;;;;;;-1.48;84.94;101392.73;108011;1277;62021;-73
2022/03/03 07:52:52;;;;;;;31.00;17.40;;;;;;;-1.36;84.73;101392.13;108167;1277;74845;-73
2022/03/03 07:55:19;;;;;;;35.70;17.00;;;;;;;-1.26;84.22;101392.80;107861;1279;71406;-74
2022/03/03 07:58:08;;;;;;;32.50;15.20;;;;;;;-1.15;84.14;101400.55;107756;1279;74045;-76
2022/03/03 08:00:35;;;;;;;26.90;14.00;;;;;;;-0.99;83.85;101409.45;108050;1279;61521;-75
2022/03/03 08:03:08;;;;;;;32.90;15.50;;;;;;;-0.86;83.52;101412.19;108191;1277;61607;-75
2022/03/03 08:05:35;;;;;;;27.00;12.20;;;;;;;-0.72;83.18;101418.92;107656;1280;74061;-75
2022/03/03 08:08:03;;;;;;;31.70;15.50;;;;;;;-0.58;82.90;101421.09;108174;1277;72598;-74
2022/03/03 08:10:31;;;;;;;29.90;16.10;;;;;;;-0.43;82.60;101431.36;107923;1279;73294;-76
2022/03/03 08:12:58;;;;;;;33.90;16.60;;;;;;;-0.28;82.19;101443.23;108135;1277;59693;-73
2022/03/03 08:15:26;;;;;;;24.30;12.10;;;;;;;-0.13;81.95;101444.64;107766;1277;59931;-74
2022/03/03 08:17:54;;;;;;;30.10;16.30;;;;;;;0.00;81.39;101442.67;108186;1277;75950;-75
2022/03/03 08:20:22;;;;;;;29.70;16.50;;;;;;;0.12;81.10;101443.39;108170;1277;71283;-74
2022/03/03 08:22:49;;;;;;;23.10;11.30;;;;;;;0.24;80.86;101446.48;108081;1279;72930;-75
2022/03/03 08:25:17;;;;;;;31.00;14.30;;;;;;;0.36;80.36;101447.02;107978;1277;62229;-75
2022/03/03 08:27:43;;;;;;;29.90;15.60;;;;;;;0.46;80.17;101449.39;108163;1277;61391;-76
2022/03/03 08:30:12;;;;;;;34.00;16.80;;;;;;;0.56;80.18;101445.49;108158;1277;74935;-75
2022/03/03 08:32:54;;;;;;;31.50;15.40;;;;;;;0.70;79.99;101448.99;108114;1279;73208;-74
2022/03/03 08:35:29;;;;;;;33.40;17.20;;;;;;;0.83;79.81;101452.73;107845;1279;73125;-76
2022/03/03 08:38:14;;;;;;;35.10;17.10;;;;;;;0.98;79.93;101452.52;107678;1279;61463;-75
2022/03/03 08:40:44;;;;;;;36.30;17.20;;;;;;;1.13;79.80;101449.67;108237;1277;62045;-74
2022/03/03 08:43:13;;;;;;;37.40;18.10;;;;;;;1.28;79.63;101449.64;108060;1279;74931;-74
2022/03/03 08:45:40;;;;;;;22.20;11.90;;;;;;;1.42;79.48;101445.82;108109;1279;70883;-75
2022/03/03 08:48:14;;;;;;;27.40;14.90;;;;;;;1.55;78.99;101442.51;108153;1277;73107;-75
2022/03/03 08:50:43;;;;;;;37.20;17.70;;;;;;;1.71;78.77;101443.78;108035;1277;60313;-75
2022/03/03 08:53:10;;;;;;;36.40;19.70;;;;;;;1.87;78.58;101442.00;108024;1279;60571;-75
2022/03/03 08:55:38;;;;;;;35.50;17.80;;;;;;;2.04;78.10;101439.73;108219;1277;74754;-76
2022/03/03 08:58:06;;;;;;;35.90;18.00;;;;;;;2.16;77.74;101446.55;108026;1279;72885;-74
2022/03/03 09:00:33;;;;;;;27.80;15.50;;;;;;;2.28;76.95;101439.87;108053;1279;74017;-76
2022/03/03 09:03:02;;;;;;;36.60;17.60;;;;;;;2.36;76.05;101431.30;108142;1279;59597;-74
2022/03/03 09:05:28;;;;;;;31.40;16.50;;;;;;;2.46;75.42;101437.63;108237;1277;61445;-75
2022/03/03 09:07:55;;;;;;;35.70;18.00;;;;;;;2.54;75.32;101432.83;108126;1279;74927;-75
2022/03/03 09:10:22;;;;;;;29.80;15.90;;;;;;;2.67;75.22;101437.05;108105;1279;71289;-75
2022/03/03 09:12:48;;;;;;;27.40;16.40;;;;;;;2.76;74.45;101440.23;108194;1277;72719;-75
2022/03/03 09:15:15;;;;;;;30.40;15.80;;;;;;;2.85;74.14;101438.39;108233;1277;58911;-74
2022/03/03 09:17:44;;;;;;;25.90;13.50;;;;;;;2.96;73.93;101433.44;108200;1277;60480;-73
2022/03/03 09:20:13;;;;;;;25.80;13.60;;;;;;;3.06;73.58;101437.63;108180;1277;74907;-76
2022/03/03 09:22:42;;;;;;;28.80;14.60;;;;;;;3.14;73.16;101440.40;108099;1278;71391;-75
2022/03/03 09:25:10;;;;;;;33.00;17.40;;;;;;;3.21;72.83;101440.92;107784;1279;73057;-74
2022/03/03 09:27:39;;;;;;;21.80;10.90;;;;;;;3.33;72.53;101441.69;107762;1279;61485;-74
2022/03/03 09:30:07;;;;;;;35.40;18.30;;;;;;;3.38;71.62;101434.52;108239;1277;61679;-74
2022/03/03 09:32:34;;;;;;;27.50;16.10;;;;;;;3.46;71.86;101434.63;108163;1277;76123;-75
2022/03/03 09:35:01;;;;;;;39.50;16.70;;;;;;;3.59;70.85;101433.20;108015;1278;71376;-75
2022/03/03 09:37:28;;;;;;;35.80;15.40;;;;;;;3.66;70.65;101434.77;108199;1277;73010;-75
2022/03/03 09:39:54;;;;;;;29.70;15.50;;;;;;;3.79;71.06;101436.96;108101;1279;59077;-75
2022/03/03 09:42:21;;;;;;;30.30;17.00;;;;;;;3.95;70.85;101438.77;108108;1279;60332;-75
2022/03/03 09:44:47;;;;;;;30.50;15.60;;;;;;;4.09;70.19;101436.85;108090;1279;76043;-73
2022/03/03 09:47:17;;;;;;;28.90;15.90;;;;;;;4.19;68.88;101434.20;108175;1277;71173;-75
2022/03/03 09:49:44;;;;;;;35.70;16.30;;;;;;;4.30;69.42;101433.16;108181;1277;74227;-75
2022/03/03 09:52:15;;;;;;;34.50;17.80;;;;;;;4.46;69.50;101429.84;108014;1279;59689;-75
2022/03/03 09:54:44;;;;;;;25.90;13.30;;;;;;;4.62;68.77;101431.08;108146;1279;61413;-74
2022/03/03 09:57:10;;;;;;;31.30;15.10;;;;;;;4.70;67.43;101433.81;108014;1278;75126;-74
2022/03/03 09:59:37;;;;;;;29.10;16.70;;;;;;;4.77;67.97;101433.96;108050;1278;59232;-75
2022/03/03 10:02:06;;;;;;;29.70;14.60;;;;;;;4.90;67.47;101433.31;108160;1277;72875;-75
2022/03/03 10:04:34;;;;;;;29.40;16.20;;;;;;;5.01;67.30;101423.84;108059;1279;59819;-74
2022/03/03 10:07:05;;;;;;;31.20;16.50;;;;;;;5.12;67.25;101422.08;108034;1280;60346;-75
2022/03/03 10:09:33;;;;;;;29.90;15.70;;;;;;;5.27;66.99;101429.02;108162;1278;76179;-74
2022/03/03 10:12:02;;;;;;;29.10;15.60;;;;;;;5.42;66.23;101429.95;108130;1279;71359;-74
2022/03/03 10:14:30;;;;;;;21.40;11.60;;;;;;;5.54;64.55;101427.85;108175;1277;72943;-75
2022/03/03 10:16:56;;;;;;;25.90;14.10;;;;;;;5.63;63.85;101430.89;108199;1277;60225;-76
2022/03/03 10:19:51;;;;;;;29.80;15.30;;;;;;;5.66;62.28;101431.63;108049;1279;61065;-75
2022/03/03 10:22:17;;;;;;;24.70;13.70;;;;;;;5.72;61.18;101430.96;108089;1279;75269;-74
2022/03/03 10:24:44;;;;;;;27.00;13.70;;;;;;;5.66;60.46;101433.05;108080;1279;60089;-75
2022/03/03 10:27:12;;;;;;;30.70;14.60;;;;;;;5.70;61.02;101435.67;108124;1279;59107;-75
2022/03/03 10:29:47;;;;;;;21.80;12.10;;;;;;;5.82;61.39;101436.52;108152;1277;60518;-73
2022/03/03 10:32:23;;;;;;;23.50;12.10;;;;;;;5.94;60.59;101437.48;107756;1279;60725;-75
2022/03/03 10:34:53;;;;;;;26.20;14.10;;;;;;;6.04;59.63;101427.00;108134;1277;73704;-75
2022/03/03 10:37:23;;;;;;;23.90;13.30;;;;;;;6.09;58.52;101432.92;108116;1279;72645;-75
2022/03/03 10:39:58;;;;;;;23.20;13.10;;;;;;;6.18;58.74;101433.92;108061;1279;72946;-73
2022/03/03 10:42:29;;;;;;;23.90;13.20;;;;;;;6.32;58.55;101427.31;108146;1279;59564;-74
2022/03/03 10:45:07;;;;;;;21.80;12.30;;;;;;;6.41;59.03;101424.82;108099;1279;60545;-76
2022/03/03 10:47:34;;;;;;;25.90;14.40;;;;;;;6.56;58.27;101422.27;108158;1277;74692;-75
2022/03/03 10:50:01;;;;;;;26.20;13.70;;;;;;;6.69;57.58;101428.57;108124;1279;58973;-74
2022/03/03 10:52:35;;;;;;;26.70;14.40;;;;;;;6.82;57.33;101426.71;108150;1278;74082;-75
2022/03/03 10:55:14;;;;;;;27.90;15.20;;;;;;;6.93;57.05;101423.12;108218;1277;60989;-76
2022/03/03 10:57:40;;;;;;;22.60;12.80;;;;;;;7.02;56.13;101419.59;108151;1278;60291;-75
2022/03/03 11:00:18;;;;;;;27.70;14.10;;;;;;;7.13;56.42;101422.10;108251;1277;59473;-75
2022/03/03 11:02:48;;;;;;;25.40;14.30;;;;;;;7.30;55.73;101428.92;108142;1277;71791;-74
2022/03/03 11:05:16;;;;;;;27.60;14.80;;;;;;;7.44;55.23;101428.54;108019;1279;72076;-73
2022/03/03 11:07:45;;;;;;;20.10;11.00;;;;;;;7.57;55.21;101419.33;108158;1277;60207;-76
2022/03/03 11:10:17;;;;;;;28.50;15.30;;;;;;;7.64;54.65;101421.17;108256;1277;61789;-74